sensor_id;sensor_type;location;lat;lon;timestamp;temperature;humidity
7028;DHT22;3555;53.248;10.336;2023-06-10T00:01:32;16.00;99.90
7028;DHT22;3555;53.248;10.336;2023-06-10T00:04:02;15.80;1.00
7028;DHT22;3555;53.248;10.336;2023-06-10T00:06:29;15.70;1.00
7028;DHT22;3555;53.248;10.336;2023-06-10T00:09:02;15.60;1.00
7028;DHT22;3555;53.248;10.336;2023-06-10T00:11:31;15.50;99.90
7028;DHT22;3555;53.248;10.336;2023-06-10T00:13:58;15.30;99.90
7028;DHT22;3555;53.248;10.336;2023-06-10T00:16:25;15.30;1.00
7028;DHT22;3555;53.248;10.336;2023-06-10T00:18:53;15.30;1.00
7028;DHT22;3555;53.248;10.336;2023-06-10T00:21:21;15.30;1.00
7028;DHT22;3555;53.248;10.336;2023-06-10T00:23:50;15.20;1.00
7028;DHT22;3555;53.248;10.336;2023-06-10T00:26:18;15.30;1.00
7028;DHT22;3555;53.248;10.336;2023-06-10T00:28:45;15.30;1.00
7028;DHT22;3555;53.248;10.336;2023-06-10T00:31:12;15.40;99.90
7028;DHT22;3555;53.248;10.336;2023-06-10T00:33:39;15.40;99.90
7028;DHT22;3555;53.248;10.336;2023-06-10T00:36:06;15.30;1.00
7028;DHT22;3555;53.248;10.336;2023-06-10T00:38:33;15.40;99.90
7028;DHT22;3555;53.248;10.336;2023-06-10T00:41:00;15.30;1.00
7028;DHT22;3555;53.248;10.336;2023-06-10T00:43:28;15.30;1.00
7028;DHT22;3555;53.248;10.336;2023-06-10T00:45:55;15.30;1.00
7028;DHT22;3555;53.248;10.336;2023-06-10T00:48:22;15.20;1.00
7028;DHT22;3555;53.248;10.336;2023-06-10T00:50:49;15.20;1.00
7028;DHT22;3555;53.248;10.336;2023-06-10T00:53:16;15.20;1.00
7028;DHT22;3555;53.248;10.336;2023-06-10T00:55:43;15.10;2.80
7028;DHT22;3555;53.248;10.336;2023-06-10T00:58:10;15.10;99.90
7028;DHT22;3555;53.248;10.336;2023-06-10T01:00:39;15.10;99.90
7028;DHT22;3555;53.248;10.336;2023-06-10T01:03:06;14.90;99.90
7028;DHT22;3555;53.248;10.336;2023-06-10T01:05:34;14.90;99.90
7028;DHT22;3555;53.248;10.336;2023-06-10T01:08:07;14.70;1.00
7028;DHT22;3555;53.248;10.336;2023-06-10T01:10:41;14.70;99.90
7028;DHT22;3555;53.248;10.336;2023-06-10T01:13:10;14.70;1.00
7028;DHT22;3555;53.248;10.336;2023-06-10T01:15:39;14.60;1.00
7028;DHT22;3555;53.248;10.336;2023-06-10T01:18:07;14.50;1.00
7028;DHT22;3555;53.248;10.336;2023-06-10T01:20:36;14.50;42.20
7028;DHT22;3555;53.248;10.336;2023-06-10T01:23:07;14.40;1.00
7028;DHT22;3555;53.248;10.336;2023-06-10T01:25:36;14.30;1.00
7028;DHT22;3555;53.248;10.336;2023-06-10T01:28:07;14.30;1.00
7028;DHT22;3555;53.248;10.336;2023-06-10T01:30:39;14.30;99.90
7028;DHT22;3555;53.248;10.336;2023-06-10T01:33:09;14.20;1.00
7028;DHT22;3555;53.248;10.336;2023-06-10T01:35:38;14.30;97.60
7028;DHT22;3555;53.248;10.336;2023-06-10T01:38:07;14.40;1.00
7028;DHT22;3555;53.248;10.336;2023-06-10T01:40:34;14.40;1.00
7028;DHT22;3555;53.248;10.336;2023-06-10T01:43:02;14.40;1.00
7028;DHT22;3555;53.248;10.336;2023-06-10T01:45:29;14.20;99.90
7028;DHT22;3555;53.248;10.336;2023-06-10T01:47:55;14.20;1.00
7028;DHT22;3555;53.248;10.336;2023-06-10T01:50:22;14.10;1.00
7028;DHT22;3555;53.248;10.336;2023-06-10T01:52:49;14.10;1.00
7028;DHT22;3555;53.248;10.336;2023-06-10T01:55:18;14.10;99.90
7028;DHT22;3555;53.248;10.336;2023-06-10T01:57:45;14.00;1.00
7028;DHT22;3555;53.248;10.336;2023-06-10T02:00:13;14.00;99.90
7028;DHT22;3555;53.248;10.336;2023-06-10T02:02:40;14.00;1.00
7028;DHT22;3555;53.248;10.336;2023-06-10T02:05:07;14.00;1.00
7028;DHT22;3555;53.248;10.336;2023-06-10T02:07:34;14.00;99.90
7028;DHT22;3555;53.248;10.336;2023-06-10T02:10:01;13.90;1.00
7028;DHT22;3555;53.248;10.336;2023-06-10T02:12:29;13.90;1.00
7028;DHT22;3555;53.248;10.336;2023-06-10T02:14:56;13.90;1.00
7028;DHT22;3555;53.248;10.336;2023-06-10T02:17:23;13.90;1.00
7028;DHT22;3555;53.248;10.336;2023-06-10T02:19:50;13.90;1.00
7028;DHT22;3555;53.248;10.336;2023-06-10T02:22:20;13.90;1.00
7028;DHT22;3555;53.248;10.336;2023-06-10T02:24:47;13.90;1.00
7028;DHT22;3555;53.248;10.336;2023-06-10T02:27:14;13.90;1.00
7028;DHT22;3555;53.248;10.336;2023-06-10T02:29:43;13.90;1.00
7028;DHT22;3555;53.248;10.336;2023-06-10T02:32:10;14.00;99.90
7028;DHT22;3555;53.248;10.336;2023-06-10T02:34:37;14.00;99.90
7028;DHT22;3555;53.248;10.336;2023-06-10T02:37:04;14.10;99.90
7028;DHT22;3555;53.248;10.336;2023-06-10T02:39:31;14.10;99.90
7028;DHT22;3555;53.248;10.336;2023-06-10T02:41:58;14.00;99.90
7028;DHT22;3555;53.248;10.336;2023-06-10T02:44:25;14.10;99.90
7028;DHT22;3555;53.248;10.336;2023-06-10T02:46:53;14.20;99.90
7028;DHT22;3555;53.248;10.336;2023-06-10T02:49:20;14.30;99.90
7028;DHT22;3555;53.248;10.336;2023-06-10T02:51:47;14.10;51.10
7028;DHT22;3555;53.248;10.336;2023-06-10T02:54:14;14.10;1.00
7028;DHT22;3555;53.248;10.336;2023-06-10T02:56:42;14.10;1.00
7028;DHT22;3555;53.248;10.336;2023-06-10T02:59:09;14.10;1.00
7028;DHT22;3555;53.248;10.336;2023-06-10T03:01:36;14.20;1.00
7028;DHT22;3555;53.248;10.336;2023-06-10T03:04:05;14.00;1.00
7028;DHT22;3555;53.248;10.336;2023-06-10T03:06:32;14.10;1.00
7028;DHT22;3555;53.248;10.336;2023-06-10T03:09:01;14.20;1.00
7028;DHT22;3555;53.248;10.336;2023-06-10T03:11:29;14.10;1.00
7028;DHT22;3555;53.248;10.336;2023-06-10T03:13:57;14.20;99.90
7028;DHT22;3555;53.248;10.336;2023-06-10T03:16:24;14.20;1.00
7028;DHT22;3555;53.248;10.336;2023-06-10T03:18:53;14.30;93.50
7028;DHT22;3555;53.248;10.336;2023-06-10T03:21:21;14.30;99.90
7028;DHT22;3555;53.248;10.336;2023-06-10T03:23:48;14.40;1.00
7028;DHT22;3555;53.248;10.336;2023-06-10T03:26:15;14.30;1.00
7028;DHT22;3555;53.248;10.336;2023-06-10T03:28:42;14.40;1.00
7028;DHT22;3555;53.248;10.336;2023-06-10T03:31:09;14.40;99.90
7028;DHT22;3555;53.248;10.336;2023-06-10T03:33:36;14.30;99.90
7028;DHT22;3555;53.248;10.336;2023-06-10T03:36:03;14.40;1.00
7028;DHT22;3555;53.248;10.336;2023-06-10T03:38:32;14.40;1.00
7028;DHT22;3555;53.248;10.336;2023-06-10T03:40:58;14.30;99.90
7028;DHT22;3555;53.248;10.336;2023-06-10T03:43:25;14.40;1.00
7028;DHT22;3555;53.248;10.336;2023-06-10T03:45:53;14.40;1.00
7028;DHT22;3555;53.248;10.336;2023-06-10T03:48:19;14.50;1.00
7028;DHT22;3555;53.248;10.336;2023-06-10T03:50:46;14.40;1.00
7028;DHT22;3555;53.248;10.336;2023-06-10T03:53:16;14.50;1.00
7028;DHT22;3555;53.248;10.336;2023-06-10T03:55:44;14.60;1.00
7028;DHT22;3555;53.248;10.336;2023-06-10T03:58:11;15.00;99.90
7028;DHT22;3555;53.248;10.336;2023-06-10T04:00:38;14.80;11.20
7028;DHT22;3555;53.248;10.336;2023-06-10T04:03:08;14.80;1.00
7028;DHT22;3555;53.248;10.336;2023-06-10T04:05:40;14.80;1.00
7028;DHT22;3555;53.248;10.336;2023-06-10T04:08:07;14.70;20.70
7028;DHT22;3555;53.248;10.336;2023-06-10T04:10:34;14.70;1.00
7028;DHT22;3555;53.248;10.336;2023-06-10T04:13:02;14.60;1.00
7028;DHT22;3555;53.248;10.336;2023-06-10T04:15:30;14.50;99.90
7028;DHT22;3555;53.248;10.336;2023-06-10T04:17:58;14.40;1.00
7028;DHT22;3555;53.248;10.336;2023-06-10T04:20:26;14.50;99.90
7028;DHT22;3555;53.248;10.336;2023-06-10T04:22:52;14.40;1.00
7028;DHT22;3555;53.248;10.336;2023-06-10T04:25:19;14.50;1.00
7028;DHT22;3555;53.248;10.336;2023-06-10T04:27:46;14.20;99.90
7028;DHT22;3555;53.248;10.336;2023-06-10T04:30:15;14.10;99.90
7028;DHT22;3555;53.248;10.336;2023-06-10T04:32:43;14.20;1.00
7028;DHT22;3555;53.248;10.336;2023-06-10T04:35:11;14.20;1.00
7028;DHT22;3555;53.248;10.336;2023-06-10T04:37:39;14.30;1.00
7028;DHT22;3555;53.248;10.336;2023-06-10T04:40:07;14.20;1.00
7028;DHT22;3555;53.248;10.336;2023-06-10T04:42:35;14.20;1.00
7028;DHT22;3555;53.248;10.336;2023-06-10T04:45:01;14.30;1.00
7028;DHT22;3555;53.248;10.336;2023-06-10T04:47:30;14.30;99.90
7028;DHT22;3555;53.248;10.336;2023-06-10T04:49:59;14.30;1.00
7028;DHT22;3555;53.248;10.336;2023-06-10T04:52:26;14.40;1.00
7028;DHT22;3555;53.248;10.336;2023-06-10T04:54:53;14.30;1.00
7028;DHT22;3555;53.248;10.336;2023-06-10T04:57:20;14.30;1.00
7028;DHT22;3555;53.248;10.336;2023-06-10T04:59:48;14.20;19.80
7028;DHT22;3555;53.248;10.336;2023-06-10T05:02:14;14.10;1.00
7028;DHT22;3555;53.248;10.336;2023-06-10T05:04:43;14.10;1.00
7028;DHT22;3555;53.248;10.336;2023-06-10T05:07:10;14.10;1.00
7028;DHT22;3555;53.248;10.336;2023-06-10T05:09:37;14.20;1.00
7028;DHT22;3555;53.248;10.336;2023-06-10T05:12:05;14.20;1.00
7028;DHT22;3555;53.248;10.336;2023-06-10T05:14:32;14.30;1.00
7028;DHT22;3555;53.248;10.336;2023-06-10T05:16:59;14.40;1.00
7028;DHT22;3555;53.248;10.336;2023-06-10T05:19:26;14.30;99.90
7028;DHT22;3555;53.248;10.336;2023-06-10T05:21:54;14.30;99.90
7028;DHT22;3555;53.248;10.336;2023-06-10T05:24:21;14.40;1.00
7028;DHT22;3555;53.248;10.336;2023-06-10T05:26:48;14.40;99.90
7028;DHT22;3555;53.248;10.336;2023-06-10T05:29:15;14.40;1.00
7028;DHT22;3555;53.248;10.336;2023-06-10T05:31:42;14.50;1.00
7028;DHT22;3555;53.248;10.336;2023-06-10T05:34:09;14.40;99.90
7028;DHT22;3555;53.248;10.336;2023-06-10T05:36:36;14.60;1.00
7028;DHT22;3555;53.248;10.336;2023-06-10T05:39:04;14.70;99.90
7028;DHT22;3555;53.248;10.336;2023-06-10T05:41:31;14.70;1.00
7028;DHT22;3555;53.248;10.336;2023-06-10T05:43:58;14.90;1.00
7028;DHT22;3555;53.248;10.336;2023-06-10T05:46:25;14.90;75.40
7028;DHT22;3555;53.248;10.336;2023-06-10T05:48:52;14.90;1.00
7028;DHT22;3555;53.248;10.336;2023-06-10T05:51:19;15.00;1.00
7028;DHT22;3555;53.248;10.336;2023-06-10T05:53:46;15.20;1.00
7028;DHT22;3555;53.248;10.336;2023-06-10T05:56:14;15.40;97.40
7028;DHT22;3555;53.248;10.336;2023-06-10T05:58:41;15.50;91.80
7028;DHT22;3555;53.248;10.336;2023-06-10T06:01:08;15.80;67.10
7028;DHT22;3555;53.248;10.336;2023-06-10T06:03:35;16.10;1.00
7028;DHT22;3555;53.248;10.336;2023-06-10T06:06:02;16.50;1.00
7028;DHT22;3555;53.248;10.336;2023-06-10T06:08:30;16.80;1.00
7028;DHT22;3555;53.248;10.336;2023-06-10T06:10:57;17.20;99.90
7028;DHT22;3555;53.248;10.336;2023-06-10T06:13:25;17.50;1.00
7028;DHT22;3555;53.248;10.336;2023-06-10T06:15:52;17.70;1.00
7028;DHT22;3555;53.248;10.336;2023-06-10T06:18:19;18.20;1.00
7028;DHT22;3555;53.248;10.336;2023-06-10T06:20:46;18.60;1.00
7028;DHT22;3555;53.248;10.336;2023-06-10T06:23:13;19.00;99.90
7028;DHT22;3555;53.248;10.336;2023-06-10T06:25:39;19.40;99.90
7028;DHT22;3555;53.248;10.336;2023-06-10T06:28:07;19.80;99.90
7028;DHT22;3555;53.248;10.336;2023-06-10T06:30:36;20.20;99.90
7028;DHT22;3555;53.248;10.336;2023-06-10T06:33:02;20.50;90.70
7028;DHT22;3555;53.248;10.336;2023-06-10T06:35:30;20.70;5.60
7028;DHT22;3555;53.248;10.336;2023-06-10T06:37:58;21.10;1.00
7028;DHT22;3555;53.248;10.336;2023-06-10T06:40:25;21.40;1.00
7028;DHT22;3555;53.248;10.336;2023-06-10T06:42:52;21.70;1.00
7028;DHT22;3555;53.248;10.336;2023-06-10T06:45:19;22.00;1.00
7028;DHT22;3555;53.248;10.336;2023-06-10T06:47:47;22.30;1.00
7028;DHT22;3555;53.248;10.336;2023-06-10T06:50:14;22.60;1.00
7028;DHT22;3555;53.248;10.336;2023-06-10T06:52:42;22.70;1.00
7028;DHT22;3555;53.248;10.336;2023-06-10T06:55:08;22.90;1.00
7028;DHT22;3555;53.248;10.336;2023-06-10T06:57:35;23.20;1.00
7028;DHT22;3555;53.248;10.336;2023-06-10T07:00:04;23.00;1.00
7028;DHT22;3555;53.248;10.336;2023-06-10T07:02:31;23.20;1.00
7028;DHT22;3555;53.248;10.336;2023-06-10T07:05:00;23.20;1.00
7028;DHT22;3555;53.248;10.336;2023-06-10T07:07:27;23.40;1.00
7028;DHT22;3555;53.248;10.336;2023-06-10T07:09:54;23.30;1.00
7028;DHT22;3555;53.248;10.336;2023-06-10T07:12:22;23.50;1.00
7028;DHT22;3555;53.248;10.336;2023-06-10T07:14:49;23.60;1.00
7028;DHT22;3555;53.248;10.336;2023-06-10T07:17:16;23.90;1.00
7028;DHT22;3555;53.248;10.336;2023-06-10T07:19:43;23.60;1.00
7028;DHT22;3555;53.248;10.336;2023-06-10T07:22:12;23.80;1.00
7028;DHT22;3555;53.248;10.336;2023-06-10T07:24:38;23.80;1.00
7028;DHT22;3555;53.248;10.336;2023-06-10T07:27:06;23.70;1.00
7028;DHT22;3555;53.248;10.336;2023-06-10T07:29:33;23.60;1.00
7028;DHT22;3555;53.248;10.336;2023-06-10T07:32:01;23.70;1.00
7028;DHT22;3555;53.248;10.336;2023-06-10T07:34:28;23.50;1.00
7028;DHT22;3555;53.248;10.336;2023-06-10T07:36:55;23.50;1.00
7028;DHT22;3555;53.248;10.336;2023-06-10T07:39:23;23.60;1.00
7028;DHT22;3555;53.248;10.336;2023-06-10T07:41:50;23.60;1.00
7028;DHT22;3555;53.248;10.336;2023-06-10T07:44:19;23.50;1.00
7028;DHT22;3555;53.248;10.336;2023-06-10T07:46:46;23.80;1.00
7028;DHT22;3555;53.248;10.336;2023-06-10T07:49:13;23.90;1.00
7028;DHT22;3555;53.248;10.336;2023-06-10T07:51:40;23.80;1.00
7028;DHT22;3555;53.248;10.336;2023-06-10T07:54:07;24.00;1.00
7028;DHT22;3555;53.248;10.336;2023-06-10T07:56:35;24.30;1.00
7028;DHT22;3555;53.248;10.336;2023-06-10T07:59:02;24.40;1.00
7028;DHT22;3555;53.248;10.336;2023-06-10T08:01:29;24.40;1.00
7028;DHT22;3555;53.248;10.336;2023-06-10T08:03:57;24.40;1.00
7028;DHT22;3555;53.248;10.336;2023-06-10T08:06:24;24.60;1.00
7028;DHT22;3555;53.248;10.336;2023-06-10T08:08:51;24.90;1.00
7028;DHT22;3555;53.248;10.336;2023-06-10T08:11:18;25.10;1.00
7028;DHT22;3555;53.248;10.336;2023-06-10T08:13:46;25.00;1.00
7028;DHT22;3555;53.248;10.336;2023-06-10T08:16:13;25.40;1.00
7028;DHT22;3555;53.248;10.336;2023-06-10T08:18:40;25.50;1.00
7028;DHT22;3555;53.248;10.336;2023-06-10T08:21:07;25.80;1.00
7028;DHT22;3555;53.248;10.336;2023-06-10T08:23:34;25.90;1.00
7028;DHT22;3555;53.248;10.336;2023-06-10T08:26:01;25.90;1.00
7028;DHT22;3555;53.248;10.336;2023-06-10T08:28:28;26.00;1.00
7028;DHT22;3555;53.248;10.336;2023-06-10T08:30:56;26.20;1.00
7028;DHT22;3555;53.248;10.336;2023-06-10T08:33:23;26.40;1.00
7028;DHT22;3555;53.248;10.336;2023-06-10T08:35:50;26.60;1.00
7028;DHT22;3555;53.248;10.336;2023-06-10T08:38:17;26.90;1.00
7028;DHT22;3555;53.248;10.336;2023-06-10T08:40:44;26.90;1.00
7028;DHT22;3555;53.248;10.336;2023-06-10T08:43:17;26.90;1.00
7028;DHT22;3555;53.248;10.336;2023-06-10T08:45:48;26.80;1.00
7028;DHT22;3555;53.248;10.336;2023-06-10T08:48:17;26.50;1.00
7028;DHT22;3555;53.248;10.336;2023-06-10T08:50:46;26.60;1.00
7028;DHT22;3555;53.248;10.336;2023-06-10T08:53:17;26.80;1.00
7028;DHT22;3555;53.248;10.336;2023-06-10T08:55:49;26.70;1.00
7028;DHT22;3555;53.248;10.336;2023-06-10T08:58:17;26.30;1.00
7028;DHT22;3555;53.248;10.336;2023-06-10T09:00:45;26.10;1.00
7028;DHT22;3555;53.248;10.336;2023-06-10T09:03:12;26.50;1.00
7028;DHT22;3555;53.248;10.336;2023-06-10T09:05:41;26.60;1.00
7028;DHT22;3555;53.248;10.336;2023-06-10T09:08:08;26.50;1.00
7028;DHT22;3555;53.248;10.336;2023-06-10T09:10:35;26.90;1.00
7028;DHT22;3555;53.248;10.336;2023-06-10T09:13:02;27.00;1.00
7028;DHT22;3555;53.248;10.336;2023-06-10T09:15:29;27.10;1.00
7028;DHT22;3555;53.248;10.336;2023-06-10T09:17:56;27.30;1.00
7028;DHT22;3555;53.248;10.336;2023-06-10T09:20:23;27.40;1.00
7028;DHT22;3555;53.248;10.336;2023-06-10T09:22:52;27.20;1.00
7028;DHT22;3555;53.248;10.336;2023-06-10T09:25:19;27.30;1.00
7028;DHT22;3555;53.248;10.336;2023-06-10T09:27:46;27.40;1.00
7028;DHT22;3555;53.248;10.336;2023-06-10T09:30:24;27.20;1.00
7028;DHT22;3555;53.248;10.336;2023-06-10T09:32:53;27.00;1.00
7028;DHT22;3555;53.248;10.336;2023-06-10T09:35:21;27.10;1.00
7028;DHT22;3555;53.248;10.336;2023-06-10T09:37:51;26.80;1.00
7028;DHT22;3555;53.248;10.336;2023-06-10T09:40:18;27.00;1.00
7028;DHT22;3555;53.248;10.336;2023-06-10T09:42:45;27.20;1.00
7028;DHT22;3555;53.248;10.336;2023-06-10T09:45:15;27.10;1.00
7028;DHT22;3555;53.248;10.336;2023-06-10T09:47:42;27.50;1.00
7028;DHT22;3555;53.248;10.336;2023-06-10T09:50:09;27.40;1.00
7028;DHT22;3555;53.248;10.336;2023-06-10T09:52:37;27.50;1.00
7028;DHT22;3555;53.248;10.336;2023-06-10T09:55:08;27.60;1.00
7028;DHT22;3555;53.248;10.336;2023-06-10T09:57:36;27.80;1.00
7028;DHT22;3555;53.248;10.336;2023-06-10T10:00:05;27.60;1.00
7028;DHT22;3555;53.248;10.336;2023-06-10T10:02:44;27.90;1.00
7028;DHT22;3555;53.248;10.336;2023-06-10T10:05:12;28.10;1.00
7028;DHT22;3555;53.248;10.336;2023-06-10T10:07:39;28.40;1.00
7028;DHT22;3555;53.248;10.336;2023-06-10T10:10:09;28.80;1.00
7028;DHT22;3555;53.248;10.336;2023-06-10T10:12:38;28.50;1.00
7028;DHT22;3555;53.248;10.336;2023-06-10T10:15:06;28.20;1.00
7028;DHT22;3555;53.248;10.336;2023-06-10T10:17:34;28.30;1.00
7028;DHT22;3555;53.248;10.336;2023-06-10T10:20:05;28.20;1.00
7028;DHT22;3555;53.248;10.336;2023-06-10T10:22:37;28.40;1.00
7028;DHT22;3555;53.248;10.336;2023-06-10T10:25:11;28.40;1.00
7028;DHT22;3555;53.248;10.336;2023-06-10T10:27:43;28.30;1.00
7028;DHT22;3555;53.248;10.336;2023-06-10T10:30:11;28.60;1.00
7028;DHT22;3555;53.248;10.336;2023-06-10T10:32:45;29.00;1.00
7028;DHT22;3555;53.248;10.336;2023-06-10T10:35:18;28.90;1.00
7028;DHT22;3555;53.248;10.336;2023-06-10T10:37:47;28.60;1.00
7028;DHT22;3555;53.248;10.336;2023-06-10T10:40:16;28.20;1.00
7028;DHT22;3555;53.248;10.336;2023-06-10T10:42:43;28.10;1.00
7028;DHT22;3555;53.248;10.336;2023-06-10T10:45:11;28.20;1.00
7028;DHT22;3555;53.248;10.336;2023-06-10T10:47:38;28.40;1.00
7028;DHT22;3555;53.248;10.336;2023-06-10T10:50:13;28.20;1.00
7028;DHT22;3555;53.248;10.336;2023-06-10T10:52:50;28.10;1.00
7028;DHT22;3555;53.248;10.336;2023-06-10T10:55:19;28.00;1.00
7028;DHT22;3555;53.248;10.336;2023-06-10T10:57:54;27.90;1.00
7028;DHT22;3555;53.248;10.336;2023-06-10T11:00:27;27.80;1.00
7028;DHT22;3555;53.248;10.336;2023-06-10T11:02:58;27.90;1.00
7028;DHT22;3555;53.248;10.336;2023-06-10T11:05:35;28.00;1.00
7028;DHT22;3555;53.248;10.336;2023-06-10T11:08:03;28.50;1.00
7028;DHT22;3555;53.248;10.336;2023-06-10T11:10:32;28.50;1.00
7028;DHT22;3555;53.248;10.336;2023-06-10T11:12:59;28.40;1.00
7028;DHT22;3555;53.248;10.336;2023-06-10T11:15:28;28.40;1.00
7028;DHT22;3555;53.248;10.336;2023-06-10T11:18:22;28.50;1.00
7028;DHT22;3555;53.248;10.336;2023-06-10T11:20:59;28.40;1.00
7028;DHT22;3555;53.248;10.336;2023-06-10T11:23:41;28.80;1.00
7028;DHT22;3555;53.248;10.336;2023-06-10T11:26:21;29.30;1.00
7028;DHT22;3555;53.248;10.336;2023-06-10T11:29:03;29.30;1.00
7028;DHT22;3555;53.248;10.336;2023-06-10T11:31:31;29.70;1.00
7028;DHT22;3555;53.248;10.336;2023-06-10T11:33:59;29.30;1.00
7028;DHT22;3555;53.248;10.336;2023-06-10T11:36:28;28.90;1.00
7028;DHT22;3555;53.248;10.336;2023-06-10T11:38:56;29.00;1.00
7028;DHT22;3555;53.248;10.336;2023-06-10T11:41:26;29.30;1.00
7028;DHT22;3555;53.248;10.336;2023-06-10T11:43:54;29.60;1.00
7028;DHT22;3555;53.248;10.336;2023-06-10T11:46:23;29.80;1.00
7028;DHT22;3555;53.248;10.336;2023-06-10T11:48:53;29.90;1.00
7028;DHT22;3555;53.248;10.336;2023-06-10T11:51:21;29.60;1.00
7028;DHT22;3555;53.248;10.336;2023-06-10T11:53:48;29.70;1.00
7028;DHT22;3555;53.248;10.336;2023-06-10T11:56:20;29.90;1.00
7028;DHT22;3555;53.248;10.336;2023-06-10T11:58:53;30.00;1.00
7028;DHT22;3555;53.248;10.336;2023-06-10T12:01:20;29.50;1.00
7028;DHT22;3555;53.248;10.336;2023-06-10T12:03:56;29.60;1.00
7028;DHT22;3555;53.248;10.336;2023-06-10T12:06:24;29.50;1.00
7028;DHT22;3555;53.248;10.336;2023-06-10T12:08:51;29.70;1.00
7028;DHT22;3555;53.248;10.336;2023-06-10T12:11:18;29.00;1.00
7028;DHT22;3555;53.248;10.336;2023-06-10T12:13:49;28.90;1.00
7028;DHT22;3555;53.248;10.336;2023-06-10T12:16:17;28.40;1.00
7028;DHT22;3555;53.248;10.336;2023-06-10T12:18:46;28.80;1.00
7028;DHT22;3555;53.248;10.336;2023-06-10T12:21:24;29.10;1.00
7028;DHT22;3555;53.248;10.336;2023-06-10T12:24:06;29.20;1.00
7028;DHT22;3555;53.248;10.336;2023-06-10T12:26:38;29.00;1.00
7028;DHT22;3555;53.248;10.336;2023-06-10T12:29:22;29.00;1.00
7028;DHT22;3555;53.248;10.336;2023-06-10T12:32:07;28.60;1.00
7028;DHT22;3555;53.248;10.336;2023-06-10T12:34:37;28.40;1.00
7028;DHT22;3555;53.248;10.336;2023-06-10T12:37:06;28.20;1.00
7028;DHT22;3555;53.248;10.336;2023-06-10T12:39:33;28.40;1.00
7028;DHT22;3555;53.248;10.336;2023-06-10T12:42:00;28.50;1.00
7028;DHT22;3555;53.248;10.336;2023-06-10T12:44:38;28.30;1.00
7028;DHT22;3555;53.248;10.336;2023-06-10T12:47:10;28.60;1.00
7028;DHT22;3555;53.248;10.336;2023-06-10T12:49:38;28.80;1.00
7028;DHT22;3555;53.248;10.336;2023-06-10T12:52:05;28.90;1.00
7028;DHT22;3555;53.248;10.336;2023-06-10T12:54:33;28.70;1.00
7028;DHT22;3555;53.248;10.336;2023-06-10T12:57:00;28.50;1.00
7028;DHT22;3555;53.248;10.336;2023-06-10T12:59:27;28.60;1.00
7028;DHT22;3555;53.248;10.336;2023-06-10T13:01:56;28.80;1.00
7028;DHT22;3555;53.248;10.336;2023-06-10T13:04:23;28.70;99.90
7028;DHT22;3555;53.248;10.336;2023-06-10T13:06:50;28.80;99.90
7028;DHT22;3555;53.248;10.336;2023-06-10T13:09:17;29.20;1.00
7028;DHT22;3555;53.248;10.336;2023-06-10T13:11:44;29.10;99.90
7028;DHT22;3555;53.248;10.336;2023-06-10T13:14:11;28.90;99.90
7028;DHT22;3555;53.248;10.336;2023-06-10T13:16:38;29.20;99.90
7028;DHT22;3555;53.248;10.336;2023-06-10T13:19:06;29.40;99.90
7028;DHT22;3555;53.248;10.336;2023-06-10T13:21:34;29.40;99.90
7028;DHT22;3555;53.248;10.336;2023-06-10T13:24:01;29.40;99.90
7028;DHT22;3555;53.248;10.336;2023-06-10T13:26:28;29.70;99.90
7028;DHT22;3555;53.248;10.336;2023-06-10T13:28:56;29.30;99.90
7028;DHT22;3555;53.248;10.336;2023-06-10T13:31:23;29.50;99.90
7028;DHT22;3555;53.248;10.336;2023-06-10T13:33:50;29.40;99.90
7028;DHT22;3555;53.248;10.336;2023-06-10T13:36:18;29.20;99.90
7028;DHT22;3555;53.248;10.336;2023-06-10T13:38:45;29.10;99.90
7028;DHT22;3555;53.248;10.336;2023-06-10T13:41:13;29.30;99.90
7028;DHT22;3555;53.248;10.336;2023-06-10T13:43:40;29.60;99.90
7028;DHT22;3555;53.248;10.336;2023-06-10T13:46:07;29.70;99.90
7028;DHT22;3555;53.248;10.336;2023-06-10T13:48:34;29.80;99.90
7028;DHT22;3555;53.248;10.336;2023-06-10T13:51:01;30.20;99.90
7028;DHT22;3555;53.248;10.336;2023-06-10T13:53:29;29.80;99.90
7028;DHT22;3555;53.248;10.336;2023-06-10T13:55:56;29.60;99.90
7028;DHT22;3555;53.248;10.336;2023-06-10T13:58:22;29.70;99.90
7028;DHT22;3555;53.248;10.336;2023-06-10T14:00:49;29.80;99.90
7028;DHT22;3555;53.248;10.336;2023-06-10T14:03:16;29.30;99.90
7028;DHT22;3555;53.248;10.336;2023-06-10T14:05:43;29.30;99.90
7028;DHT22;3555;53.248;10.336;2023-06-10T14:08:10;29.20;99.90
7028;DHT22;3555;53.248;10.336;2023-06-10T14:10:38;29.40;99.90
7028;DHT22;3555;53.248;10.336;2023-06-10T14:13:05;29.60;99.90
7028;DHT22;3555;53.248;10.336;2023-06-10T14:15:32;29.40;99.90
7028;DHT22;3555;53.248;10.336;2023-06-10T14:17:59;29.50;99.90
7028;DHT22;3555;53.248;10.336;2023-06-10T14:20:26;29.70;99.90
7028;DHT22;3555;53.248;10.336;2023-06-10T14:22:57;30.00;99.90
7028;DHT22;3555;53.248;10.336;2023-06-10T14:25:23;30.40;99.90
7028;DHT22;3555;53.248;10.336;2023-06-10T14:27:52;30.40;99.90
7028;DHT22;3555;53.248;10.336;2023-06-10T14:30:19;30.40;99.90
7028;DHT22;3555;53.248;10.336;2023-06-10T14:32:46;30.10;99.90
7028;DHT22;3555;53.248;10.336;2023-06-10T14:35:13;29.70;99.90
7028;DHT22;3555;53.248;10.336;2023-06-10T14:37:40;29.50;99.90
7028;DHT22;3555;53.248;10.336;2023-06-10T14:40:08;29.50;99.90
7028;DHT22;3555;53.248;10.336;2023-06-10T14:42:35;29.40;99.90
7028;DHT22;3555;53.248;10.336;2023-06-10T14:45:04;29.20;99.90
7028;DHT22;3555;53.248;10.336;2023-06-10T14:47:31;29.50;99.90
7028;DHT22;3555;53.248;10.336;2023-06-10T14:49:58;29.70;99.90
7028;DHT22;3555;53.248;10.336;2023-06-10T14:52:25;30.00;99.90
7028;DHT22;3555;53.248;10.336;2023-06-10T14:54:52;29.80;99.90
7028;DHT22;3555;53.248;10.336;2023-06-10T14:57:19;30.10;99.90
7028;DHT22;3555;53.248;10.336;2023-06-10T14:59:46;30.40;99.90
7028;DHT22;3555;53.248;10.336;2023-06-10T15:02:14;30.30;99.90
7028;DHT22;3555;53.248;10.336;2023-06-10T15:04:41;30.10;99.90
7028;DHT22;3555;53.248;10.336;2023-06-10T15:07:08;30.00;99.90
7028;DHT22;3555;53.248;10.336;2023-06-10T15:09:35;30.00;99.90
7028;DHT22;3555;53.248;10.336;2023-06-10T15:12:02;29.80;99.90
7028;DHT22;3555;53.248;10.336;2023-06-10T15:14:31;29.40;99.90
7028;DHT22;3555;53.248;10.336;2023-06-10T15:16:58;29.60;99.90
7028;DHT22;3555;53.248;10.336;2023-06-10T15:19:27;29.60;99.90
7028;DHT22;3555;53.248;10.336;2023-06-10T15:21:53;29.10;99.90
7028;DHT22;3555;53.248;10.336;2023-06-10T15:24:20;29.00;99.90
7028;DHT22;3555;53.248;10.336;2023-06-10T15:26:47;28.90;99.90
7028;DHT22;3555;53.248;10.336;2023-06-10T15:29:14;29.00;99.90
7028;DHT22;3555;53.248;10.336;2023-06-10T15:31:41;29.00;99.90
7028;DHT22;3555;53.248;10.336;2023-06-10T15:34:08;29.10;99.90
7028;DHT22;3555;53.248;10.336;2023-06-10T15:36:36;29.20;99.90
7028;DHT22;3555;53.248;10.336;2023-06-10T15:39:04;29.20;99.90
7028;DHT22;3555;53.248;10.336;2023-06-10T15:41:32;29.30;99.90
7028;DHT22;3555;53.248;10.336;2023-06-10T15:43:59;29.30;99.90
7028;DHT22;3555;53.248;10.336;2023-06-10T15:46:26;29.00;99.90
7028;DHT22;3555;53.248;10.336;2023-06-10T15:48:53;29.10;99.90
7028;DHT22;3555;53.248;10.336;2023-06-10T15:51:20;29.00;99.90
7028;DHT22;3555;53.248;10.336;2023-06-10T15:53:48;29.20;1.00
7028;DHT22;3555;53.248;10.336;2023-06-10T15:56:15;29.30;1.00
7028;DHT22;3555;53.248;10.336;2023-06-10T15:58:42;29.30;1.00
7028;DHT22;3555;53.248;10.336;2023-06-10T16:01:09;29.30;1.00
7028;DHT22;3555;53.248;10.336;2023-06-10T16:03:37;29.40;1.00